Terminal Aerodrome Forecast
Issued by NWS

Home | Current Version | Previous Version | Text Only | Print | Product List | Glossary On
Versions: 1 2 3 4 5 6 7 8 9 10 11 12 13 14 15
000
FTUS41 KBTV 020500
TAFSLK
TAF
KSLK 020520Z 0206/0306 05005KT 5SM BR OVC005
     FM020800 00000KT 1SM BR BKN003
      TEMPO 0208/0212 1/2SM FG VV002
     FM021300 00000KT 3SM BR BKN003
     FM021500 VRB03KT P6SM SCT040
     FM021800 19004KT P6SM SCT200=

USA.gov is the U.S. government's official web portal to all federal, state and local government web resources and services.